createdAt,value
2023-01-17T00:02:09.053Z,1.40
2023-01-17T00:04:55.623Z,2.20
2023-01-17T00:07:43.412Z,1.75
2023-01-17T00:10:17.841Z,2.00
2023-01-17T00:12:51.932Z,1.58
2023-01-17T00:15:23.323Z,2.35
2023-01-17T00:17:53.506Z,2.45
2023-01-17T00:20:42.781Z,1.55
2023-01-17T00:23:34.204Z,1.60
2023-01-17T00:30:15.561Z,1.80
2023-01-17T00:32:43.371Z,1.85
2023-01-17T00:35:11.103Z,2.45
2023-01-17T00:37:38.899Z,1.75
2023-01-17T00:40:07.802Z,1.77
2023-01-17T00:42:35.842Z,2.25
2023-01-17T00:45:22.737Z,1.95
2023-01-17T00:48:10.823Z,1.70
2023-01-17T00:50:57.253Z,2.00
2023-01-17T00:53:43.797Z,1.95
2023-01-17T00:56:30.002Z,1.58
2023-01-17T00:59:16.639Z,2.10
2023-01-17T01:02:03.397Z,1.73
2023-01-17T01:04:51.423Z,1.45
2023-01-17T01:07:37.836Z,1.63
2023-01-17T01:10:24.996Z,2.10
2023-01-17T01:13:11.620Z,1.35
2023-01-17T01:15:58.559Z,2.10
2023-01-17T01:18:45.211Z,2.50
2023-01-17T01:21:33.306Z,2.00
2023-01-17T01:24:20.007Z,2.40
2023-01-17T01:27:06.392Z,2.20
2023-01-17T01:29:52.776Z,2.40
2023-01-17T01:32:39.188Z,2.10
2023-01-17T01:35:08.645Z,2.15
2023-01-17T01:37:38.997Z,1.90
2023-01-17T01:40:09.477Z,1.60
2023-01-17T01:42:38.605Z,1.90
2023-01-17T01:45:18.805Z,2.35
2023-01-17T01:47:48.914Z,2.53
2023-01-17T01:50:21.056Z,1.52
2023-01-17T01:52:57.318Z,1.80
2023-01-17T01:55:30.445Z,2.50
2023-01-17T01:58:05.642Z,2.15
2023-01-17T02:00:41.024Z,1.95
2023-01-17T02:03:15.056Z,1.92
2023-01-17T02:05:45.004Z,2.25
2023-01-17T02:08:17.986Z,2.00
2023-01-17T02:10:47.239Z,1.42
2023-01-17T02:13:20.353Z,2.65
2023-01-17T02:15:58.432Z,2.35
2023-01-17T02:18:39.256Z,2.20
2023-01-17T02:21:25.610Z,2.42
2023-01-17T02:24:32.388Z,1.90
2023-01-17T02:27:17.203Z,1.90
2023-01-17T02:30:15.377Z,1.90
2023-01-17T02:33:02.386Z,1.60
2023-01-17T02:35:38.591Z,1.92
2023-01-17T02:38:18.412Z,2.20
2023-01-17T02:40:50.789Z,2.10
2023-01-17T02:43:21.760Z,1.83
2023-01-17T02:45:50.835Z,1.90
2023-01-17T02:48:25.872Z,2.03
2023-01-17T02:51:21.294Z,2.40
2023-01-17T02:54:07.563Z,2.10
2023-01-17T02:57:51.763Z,3.38
2023-01-17T03:00:27.508Z,2.13
2023-01-17T03:03:05.616Z,2.10
2023-01-17T03:05:42.416Z,1.90
2023-01-17T03:08:13.723Z,1.65
2023-01-17T03:10:44.569Z,2.30
2023-01-17T03:13:13.997Z,2.58
2023-01-17T03:15:43.366Z,2.15
2023-01-17T03:18:16.238Z,2.38
2023-01-17T03:20:46.801Z,2.35
2023-01-17T03:23:15.997Z,2.20
2023-01-17T03:25:45.225Z,2.15
2023-01-17T03:28:14.329Z,2.05
2023-01-17T03:30:43.620Z,2.10
2023-01-17T03:33:12.776Z,2.00
2023-01-17T03:35:42.028Z,2.10
2023-01-17T03:38:12.657Z,1.80
2023-01-17T03:40:42.276Z,1.73
2023-01-17T03:43:11.935Z,1.70
2023-01-17T03:45:41.189Z,1.75
2023-01-17T03:48:10.380Z,1.88
2023-01-17T03:50:39.488Z,1.90
2023-01-17T03:53:08.784Z,1.40
2023-01-17T03:55:39.380Z,1.60
2023-01-17T03:58:08.535Z,1.35
2023-01-17T04:00:38.068Z,1.90
2023-01-17T04:03:07.343Z,1.70
2023-01-17T04:05:36.603Z,1.13
2023-01-17T04:08:07.280Z,1.20
2023-01-17T04:10:36.534Z,1.20
2023-01-17T04:13:07.090Z,1.17
2023-01-17T04:15:36.656Z,1.30
2023-01-17T04:18:06.842Z,1.23
2023-01-17T04:20:38.175Z,1.02
2023-01-17T04:23:08.365Z,1.60
2023-01-17T04:25:37.619Z,1.13
2023-01-17T04:28:08.802Z,1.20
2023-01-17T04:30:37.976Z,1.70
2023-01-17T04:33:23.454Z,1.08
2023-01-17T04:35:53.816Z,0.98
2023-01-17T04:38:23.471Z,1.10
2023-01-17T04:40:52.739Z,1.00
2023-01-17T04:43:23.320Z,1.15
2023-01-17T04:45:57.298Z,0.80
2023-01-17T04:48:27.291Z,1.10
2023-01-17T04:51:01.839Z,1.23
2023-01-17T04:53:31.056Z,0.90
2023-01-17T04:56:00.415Z,1.15
2023-01-17T04:58:31.064Z,1.25
2023-01-17T05:01:04.354Z,1.33
2023-01-17T05:03:36.367Z,1.38
2023-01-17T05:06:05.875Z,1.25
2023-01-17T05:08:35.075Z,0.98
2023-01-17T05:11:04.334Z,1.17
2023-01-17T05:13:34.958Z,1.38
2023-01-17T05:16:04.185Z,0.75
2023-01-17T05:18:33.376Z,1.30
2023-01-17T05:21:06.230Z,1.08
2023-01-17T05:23:35.463Z,1.67
2023-01-17T05:26:05.054Z,1.17
2023-01-17T05:28:35.626Z,0.90
2023-01-17T05:31:04.782Z,0.98
2023-01-17T05:33:34.121Z,1.20
2023-01-17T05:36:03.747Z,1.42
2023-01-17T05:38:32.926Z,1.30
2023-01-17T05:41:02.696Z,1.27
2023-01-17T05:43:31.946Z,0.90
2023-01-17T05:46:02.772Z,1.40
2023-01-17T05:48:32.079Z,0.85
2023-01-17T05:51:01.756Z,1.42
2023-01-17T05:53:30.889Z,1.50
2023-01-17T05:56:00.128Z,1.30
2023-01-17T05:58:29.329Z,1.17
2023-01-17T06:00:58.454Z,1.52
2023-01-17T06:03:29.233Z,1.75
2023-01-17T06:05:58.529Z,1.30
2023-01-17T06:08:27.790Z,1.73
2023-01-17T06:10:59.545Z,2.25
2023-01-17T06:13:29.023Z,1.73
2023-01-17T06:16:02.912Z,1.40
2023-01-17T06:18:34.047Z,1.50
2023-01-17T06:21:03.249Z,1.58
2023-01-17T06:23:32.531Z,1.65
2023-01-17T06:26:05.188Z,1.40
2023-01-17T06:28:34.410Z,1.52
2023-01-17T06:31:08.938Z,1.52
2023-01-17T06:33:39.637Z,1.67
2023-01-17T06:36:09.215Z,1.42
2023-01-17T06:38:38.507Z,2.17
2023-01-17T06:41:08.833Z,1.80
2023-01-17T06:43:38.022Z,1.15
2023-01-17T06:46:07.407Z,1.40
2023-01-17T06:48:36.657Z,1.40
2023-01-17T06:51:07.532Z,1.20
2023-01-17T06:53:36.877Z,1.63
2023-01-17T06:56:06.440Z,2.20
2023-01-17T06:58:35.473Z,1.65
2023-01-17T07:01:09.452Z,1.55
2023-01-17T07:03:39.082Z,1.20
2023-01-17T07:06:10.381Z,1.63
2023-01-17T07:08:40.591Z,1.05
2023-01-17T07:11:10.292Z,1.50
2023-01-17T07:13:40.346Z,1.85
2023-01-17T07:16:10.155Z,1.70
2023-01-17T07:18:39.388Z,1.23
2023-01-17T07:21:15.091Z,1.60
2023-01-17T07:23:44.328Z,2.22
2023-01-17T07:26:13.453Z,2.83
2023-01-17T07:28:42.651Z,1.70
2023-01-17T07:31:11.869Z,1.95
2023-01-17T07:33:41.163Z,1.73
2023-01-17T07:36:12.458Z,1.85
2023-01-17T07:38:44.037Z,2.20
2023-01-17T07:41:13.225Z,1.73
2023-01-17T07:43:42.419Z,2.10
2023-01-17T07:46:11.645Z,2.13
2023-01-17T07:48:40.899Z,1.70
2023-01-17T07:51:11.980Z,1.95
2023-01-17T07:53:41.090Z,2.42
2023-01-17T07:56:10.495Z,2.00
2023-01-17T07:58:39.741Z,2.20
2023-01-17T08:01:11.192Z,1.90
2023-01-17T08:03:41.041Z,2.47
2023-01-17T08:06:20.199Z,2.25
2023-01-17T08:08:49.630Z,2.40
2023-01-17T08:11:19.095Z,2.20
2023-01-17T08:13:56.364Z,1.48
2023-01-17T08:16:25.865Z,1.98
2023-01-17T08:18:58.661Z,2.08
2023-01-17T08:21:39.631Z,1.60
2023-01-17T08:24:16.672Z,1.70
2023-01-17T08:27:01.930Z,2.67
2023-01-17T08:29:42.619Z,2.55
2023-01-17T08:32:28.955Z,2.50
2023-01-17T08:35:12.089Z,1.52
2023-01-17T08:37:43.804Z,2.15
2023-01-17T08:40:18.218Z,2.00
2023-01-17T08:43:02.354Z,1.83
2023-01-17T08:45:45.360Z,1.50
2023-01-17T08:48:33.100Z,2.40
2023-01-17T08:51:11.211Z,1.17
2023-01-17T08:53:51.775Z,1.90
2023-01-17T08:56:30.361Z,1.60
2023-01-17T08:59:10.807Z,1.20
2023-01-17T09:01:46.193Z,1.70
2023-01-17T09:04:20.729Z,1.15
2023-01-17T09:06:59.519Z,1.45
2023-01-17T09:09:38.995Z,1.20
2023-01-17T09:12:12.494Z,1.40
2023-01-17T09:14:44.209Z,1.13
2023-01-17T09:17:16.424Z,1.58
2023-01-17T09:19:59.588Z,1.05
2023-01-17T09:22:46.053Z,1.00
2023-01-17T09:25:19.849Z,2.08
2023-01-17T09:28:07.633Z,0.80
2023-01-17T09:30:40.561Z,0.98
2023-01-17T09:33:12.401Z,1.20
2023-01-17T09:35:55.348Z,0.90
2023-01-17T09:38:29.509Z,0.80
2023-01-17T09:41:27.859Z,0.80
2023-01-17T09:44:09.024Z,1.25
2023-01-17T09:46:48.362Z,2.25
2023-01-17T09:49:39.065Z,2.15
2023-01-17T09:52:14.359Z,0.80
2023-01-17T09:55:00.157Z,0.80
2023-01-17T09:57:52.382Z,0.93
2023-01-17T10:00:46.396Z,1.20
2023-01-17T10:03:34.879Z,1.38
2023-01-17T10:06:24.485Z,1.00
2023-01-17T10:09:24.870Z,1.02
2023-01-17T10:12:20.623Z,0.98
2023-01-17T10:15:09.495Z,1.40
2023-01-17T10:17:52.203Z,1.23
2023-01-17T10:20:49.729Z,1.05
2023-01-17T10:23:38.681Z,0.93
2023-01-17T10:26:18.337Z,1.00
2023-01-17T10:28:57.572Z,0.82
2023-01-17T10:31:57.582Z,1.20
2023-01-17T10:34:36.242Z,0.90
2023-01-17T10:37:18.567Z,0.80
2023-01-17T10:39:54.678Z,1.10
2023-01-17T10:42:41.523Z,0.82
2023-01-17T10:48:47.204Z,0.80
2023-01-17T10:52:00.474Z,0.82
2023-01-17T10:55:07.719Z,1.00
2023-01-17T10:57:59.376Z,0.80
2023-01-17T11:00:51.539Z,1.08
2023-01-17T11:03:31.694Z,1.20
2023-01-17T11:06:27.052Z,1.45
2023-01-17T11:09:15.910Z,0.93
2023-01-17T11:12:03.438Z,1.40
2023-01-17T11:14:40.416Z,0.85
2023-01-17T11:17:33.074Z,1.20
2023-01-17T11:20:23.806Z,1.17
2023-01-17T11:23:24.041Z,1.60
2023-01-17T11:26:00.162Z,0.65
2023-01-17T11:31:31.124Z,0.80
2023-01-17T11:34:27.416Z,0.82
2023-01-17T11:37:19.651Z,0.80
2023-01-17T11:40:12.902Z,0.88
2023-01-17T11:42:52.088Z,0.98
2023-01-17T11:45:40.616Z,1.73
2023-01-17T11:48:17.353Z,1.10
2023-01-17T11:51:09.849Z,1.00
2023-01-17T11:53:50.162Z,1.10
2023-01-17T11:56:48.400Z,1.90
2023-01-17T11:59:40.431Z,1.70
2023-01-17T12:03:16.358Z,0.85
2023-01-17T12:06:05.754Z,1.40
2023-01-17T12:09:04.332Z,1.42
2023-01-17T12:12:05.294Z,1.67
2023-01-17T12:14:52.724Z,1.42
2023-01-17T12:17:42.016Z,1.33
2023-01-17T12:20:31.290Z,1.30
2023-01-17T12:23:31.516Z,1.25
2023-01-17T12:26:31.338Z,1.33
2023-01-17T12:29:38.909Z,1.25
2023-01-17T12:32:43.022Z,1.98
2023-01-17T12:35:19.151Z,1.20
2023-01-17T12:38:05.914Z,1.70
2023-01-17T12:40:47.993Z,1.13
2023-01-17T12:43:28.794Z,1.60
2023-01-17T12:46:11.615Z,1.30
2023-01-17T12:48:48.252Z,2.60
2023-01-17T12:51:33.195Z,1.30
2023-01-17T12:54:16.270Z,1.17
2023-01-17T12:57:03.396Z,1.65
2023-01-17T13:00:00.311Z,1.23
2023-01-17T13:02:44.767Z,1.27
2023-01-17T13:05:34.911Z,1.00
2023-01-17T13:08:42.009Z,1.38
2023-01-17T13:11:18.340Z,1.80
2023-01-17T13:14:00.820Z,2.00
2023-01-17T13:16:42.244Z,1.50
2023-01-17T13:19:30.408Z,1.48
2023-01-17T13:22:24.849Z,1.60
2023-01-17T13:25:11.759Z,1.35
2023-01-17T13:28:10.668Z,1.58
2023-01-17T13:31:16.408Z,1.10
2023-01-17T13:34:35.227Z,1.45
2023-01-17T13:37:39.765Z,1.70
2023-01-17T13:40:37.659Z,1.60
2023-01-17T13:43:20.541Z,1.25
2023-01-17T13:46:03.294Z,1.27
2023-01-17T13:48:38.252Z,1.27
2023-01-17T13:51:14.357Z,1.65
2023-01-17T13:54:04.000Z,1.80
2023-01-17T13:56:44.404Z,1.30
2023-01-17T13:59:49.433Z,1.77
2023-01-17T14:02:46.098Z,1.40
2023-01-17T14:05:22.527Z,1.52
2023-01-17T14:08:01.401Z,1.33
2023-01-17T14:10:46.751Z,1.70
2023-01-17T14:13:37.939Z,1.80
2023-01-17T14:16:32.658Z,1.45
2023-01-17T14:19:04.537Z,1.55
2023-01-17T14:21:39.770Z,1.67
2023-01-17T14:24:23.596Z,1.80
2023-01-17T14:27:03.040Z,1.98
2023-01-17T14:30:07.929Z,1.85
2023-01-17T14:32:40.669Z,1.65
2023-01-17T14:35:30.745Z,1.80
2023-01-17T14:38:07.209Z,1.20
2023-01-17T14:40:54.385Z,1.60
2023-01-17T14:43:30.900Z,2.90
2023-01-17T14:46:05.019Z,1.80
2023-01-17T14:48:55.221Z,1.23
2023-01-17T14:51:28.250Z,1.63
2023-01-17T14:54:12.546Z,1.25
2023-01-17T14:56:53.668Z,2.20
2023-01-17T14:59:31.211Z,1.60
2023-01-17T15:02:08.729Z,1.70
2023-01-17T15:04:44.821Z,2.33
2023-01-17T15:07:21.087Z,1.80
2023-01-17T15:09:52.726Z,1.35
2023-01-17T15:12:33.159Z,2.13
2023-01-17T15:15:06.276Z,1.90
2023-01-17T15:17:45.056Z,1.77
2023-01-17T15:20:22.272Z,2.22
2023-01-17T15:23:03.556Z,1.58
2023-01-17T15:25:37.889Z,2.53
2023-01-17T15:28:20.148Z,1.58
2023-01-17T15:31:13.448Z,2.00
2023-01-17T15:33:48.357Z,1.55
2023-01-17T15:36:30.472Z,1.48
2023-01-17T15:39:05.918Z,1.70
2023-01-17T15:41:41.962Z,1.55
2023-01-17T15:44:48.452Z,1.35
2023-01-17T15:47:37.909Z,3.50
2023-01-17T15:50:32.010Z,1.83
2023-01-17T15:53:14.995Z,1.65
2023-01-17T15:55:57.637Z,1.60
2023-01-17T15:58:42.083Z,1.50
2023-01-17T16:01:29.773Z,1.83
2023-01-17T16:04:01.711Z,2.50
2023-01-17T16:06:47.121Z,2.00
2023-01-17T16:09:30.929Z,2.05
2023-01-17T16:12:01.007Z,2.83
2023-01-17T16:14:53.490Z,2.28
2023-01-17T16:17:37.480Z,2.10
2023-01-17T16:20:15.923Z,2.47
2023-01-17T16:22:51.583Z,2.80
2023-01-17T16:25:25.683Z,3.15
2023-01-17T16:28:02.156Z,3.03
2023-01-17T16:30:37.840Z,2.60
2023-01-17T16:33:33.749Z,3.58
2023-01-17T16:36:19.132Z,3.05
2023-01-17T16:39:01.749Z,2.30
2023-01-17T16:41:51.813Z,2.75
2023-01-17T16:44:24.150Z,3.85
2023-01-17T16:47:00.134Z,2.40
2023-01-17T16:49:41.284Z,3.88
2023-01-17T16:52:14.200Z,2.92
2023-01-17T16:54:54.579Z,3.60
2023-01-17T16:57:43.403Z,3.60
2023-01-17T17:00:21.239Z,3.17
2023-01-17T17:03:04.068Z,4.30
2023-01-17T17:05:48.448Z,3.88
2023-01-17T17:08:31.683Z,3.65
2023-01-17T17:11:19.661Z,3.47
2023-01-17T17:13:55.253Z,3.80
2023-01-17T17:17:32.875Z,2.70
2023-01-17T17:20:29.059Z,2.78
2023-01-17T17:23:28.991Z,2.85
2023-01-17T17:26:23.354Z,2.53
2023-01-17T17:29:00.027Z,4.00
2023-01-17T17:31:32.287Z,2.80
2023-01-17T17:34:05.084Z,3.10
2023-01-17T17:36:43.696Z,3.25
2023-01-17T17:39:28.541Z,3.33
2023-01-17T17:42:02.630Z,3.75
2023-01-17T17:44:36.075Z,4.28
2023-01-17T17:47:19.107Z,2.95
2023-01-17T17:49:56.848Z,3.75
2023-01-17T17:52:44.269Z,2.78
2023-01-17T17:55:37.642Z,4.15
2023-01-17T17:58:21.482Z,3.20
2023-01-17T18:00:54.162Z,3.85
2023-01-17T18:03:41.738Z,3.85
2023-01-17T18:06:35.832Z,5.25
2023-01-17T18:09:08.031Z,3.50
2023-01-17T18:11:50.090Z,3.72
2023-01-17T18:14:22.360Z,5.10
2023-01-17T18:17:05.690Z,3.47
2023-01-17T18:19:50.353Z,3.50
2023-01-17T18:22:22.107Z,3.83
2023-01-17T18:24:51.272Z,4.00
2023-01-17T18:27:21.918Z,3.70
2023-01-17T18:29:51.413Z,3.72
2023-01-17T18:32:22.975Z,3.60
2023-01-17T18:34:52.328Z,3.78
2023-01-17T18:37:23.152Z,4.65
2023-01-17T18:39:52.361Z,4.75
2023-01-17T18:42:23.790Z,3.45
2023-01-17T18:44:53.085Z,3.65
2023-01-17T18:47:22.287Z,3.00
2023-01-17T18:49:53.808Z,3.60
2023-01-17T18:52:23.119Z,3.50
2023-01-17T18:54:52.289Z,3.60
2023-01-17T18:57:24.254Z,3.58
2023-01-17T18:59:53.587Z,3.30
2023-01-17T19:02:22.803Z,3.20
2023-01-17T19:04:52.089Z,3.33
2023-01-17T19:07:22.144Z,3.75
2023-01-17T19:09:51.331Z,3.97
2023-01-17T19:12:21.997Z,4.97
2023-01-17T19:14:51.132Z,3.85
2023-01-17T19:17:20.352Z,4.47
2023-01-17T19:19:50.535Z,3.28
2023-01-17T19:22:19.773Z,3.45
2023-01-17T19:24:49.074Z,4.40
2023-01-17T19:27:18.930Z,3.95
2023-01-17T19:29:50.266Z,5.47
2023-01-17T19:32:19.645Z,4.45
2023-01-17T19:34:48.773Z,4.25
2023-01-17T19:37:17.978Z,6.22
2023-01-17T19:39:47.423Z,6.20
2023-01-17T19:42:16.624Z,4.50
2023-01-17T19:44:45.740Z,4.38
2023-01-17T19:47:16.416Z,4.38
2023-01-17T19:49:45.832Z,4.97
2023-01-17T19:52:15.135Z,4.13
2023-01-17T19:54:44.277Z,4.80
2023-01-17T19:57:13.431Z,4.65
2023-01-17T19:59:42.619Z,4.60
2023-01-17T20:02:12.489Z,5.65
2023-01-17T20:04:44.257Z,4.65
2023-01-17T20:07:13.618Z,4.57
2023-01-17T20:09:42.800Z,4.60
2023-01-17T20:12:12.417Z,5.10
2023-01-17T20:14:41.669Z,5.13
2023-01-17T20:17:11.065Z,5.75
2023-01-17T20:19:40.211Z,5.55
2023-01-17T20:22:10.888Z,5.00
2023-01-17T20:24:40.277Z,5.40
2023-01-17T20:27:09.498Z,6.18
2023-01-17T20:29:40.752Z,5.68
2023-01-17T20:32:09.990Z,5.63
2023-01-17T20:34:39.095Z,4.78
2023-01-17T20:37:09.690Z,6.68
2023-01-17T20:43:44.025Z,5.63
2023-01-17T20:46:14.550Z,3.85
2023-01-17T20:48:48.253Z,6.15
2023-01-17T20:51:18.790Z,6.75
2023-01-17T20:53:53.874Z,5.40
2023-01-17T20:56:23.774Z,5.80
2023-01-17T20:58:54.088Z,6.85
2023-01-17T21:01:24.057Z,6.40
2023-01-17T21:03:54.257Z,5.75
2023-01-17T21:06:25.034Z,8.25
2023-01-17T21:08:55.919Z,6.45
2023-01-17T21:11:27.696Z,5.50
2023-01-17T21:13:57.484Z,7.15
2023-01-17T21:16:28.191Z,9.02
2023-01-17T21:18:57.592Z,8.35
2023-01-17T21:21:29.109Z,8.65
2023-01-17T21:24:01.068Z,6.97
2023-01-17T21:26:30.841Z,8.13
2023-01-17T21:29:02.370Z,6.65
2023-01-17T21:31:34.876Z,6.85
2023-01-17T21:34:06.447Z,7.40
2023-01-17T21:36:38.219Z,6.30
2023-01-17T21:39:12.414Z,7.18
2023-01-17T21:41:42.436Z,7.90
2023-01-17T21:44:15.037Z,6.68
2023-01-17T21:46:44.277Z,7.18
2023-01-17T21:49:13.649Z,7.22
2023-01-17T21:52:01.536Z,8.15
2023-01-17T21:54:55.223Z,8.55
2023-01-17T21:57:42.412Z,6.15
2023-01-17T22:00:14.814Z,6.25
2023-01-17T22:02:47.958Z,7.25
2023-01-17T22:05:18.776Z,5.95
2023-01-17T22:08:01.944Z,6.88
2023-01-17T22:10:32.705Z,7.65
2023-01-17T22:13:01.909Z,7.07
2023-01-17T22:15:36.652Z,6.57
2023-01-17T22:18:06.098Z,7.68
2023-01-17T22:20:35.722Z,10.35
2023-01-17T22:23:05.016Z,7.30
2023-01-17T22:25:35.631Z,6.70
2023-01-17T22:28:05.164Z,7.18
2023-01-17T22:30:34.358Z,7.57
2023-01-17T22:33:03.443Z,8.63
2023-01-17T22:35:32.774Z,6.93
2023-01-17T22:38:02.049Z,7.80
2023-01-17T22:40:32.819Z,7.90
2023-01-17T22:43:04.466Z,7.82
2023-01-17T22:45:33.596Z,7.40
2023-01-17T22:48:02.741Z,7.88
2023-01-17T22:50:31.906Z,7.45
2023-01-17T22:53:01.075Z,8.13
2023-01-17T22:55:30.354Z,6.90
2023-01-17T22:57:59.565Z,9.55
2023-01-17T23:00:31.617Z,9.93
2023-01-17T23:03:01.109Z,9.45
2023-01-17T23:05:30.526Z,10.02
2023-01-17T23:08:02.207Z,9.05
2023-01-17T23:10:48.660Z,8.65
2023-01-17T23:13:17.961Z,9.70
2023-01-17T23:16:06.150Z,11.30
2023-01-17T23:18:52.601Z,11.45
2023-01-17T23:21:21.863Z,11.77
2023-01-17T23:23:51.109Z,15.88
2023-01-17T23:26:20.212Z,16.15
2023-01-17T23:28:49.012Z,16.00
2023-01-17T23:31:19.713Z,14.55
2023-01-17T23:33:49.108Z,13.90
2023-01-17T23:36:18.355Z,13.43
2023-01-17T23:39:05.114Z,12.73
2023-01-17T23:41:57.063Z,12.00
2023-01-17T23:44:31.906Z,12.55
2023-01-17T23:47:14.027Z,13.00
2023-01-17T23:49:50.987Z,13.48
2023-01-17T23:52:20.245Z,13.85
2023-01-17T23:54:49.767Z,13.20
2023-01-17T23:57:19.929Z,13.25
2023-01-17T23:59:49.140Z,14.38
